Terminal Aerodrome Forecast
Issued by NWS Amarillo, TX

Home | Current Version | Previous Version | Text Only | Print | Product List | Glossary On
Versions: 1 2 3 4 5 6 7 8 9 10 11 12 13 14 15
000
FTUS44 KAMA 301700 RRA
TAFAMA
TAF
KAMA 301744Z 3018/3118 16012KT P6SM OVC080
     FM310000 15012KT P6SM -RA OVC020
     FM310300 16010KT 3SM -RASNPL BR OVC006=

USA.gov is the U.S. government's official web portal to all federal, state and local government web resources and services.